sensor_id;sensor_type;location;lat;lon;timestamp;P1;durP1;ratioP1;P2;durP2;ratioP2
23990;SDS011;12205;50.600;4.608;2024-01-15T00:01:59;20.65;;;9.18;;
23990;SDS011;12205;50.600;4.608;2024-01-15T00:04:27;22.50;;;9.70;;
23990;SDS011;12205;50.600;4.608;2024-01-15T00:06:54;20.15;;;8.48;;
23990;SDS011;12205;50.600;4.608;2024-01-15T00:09:21;18.45;;;7.93;;
23990;SDS011;12205;50.600;4.608;2024-01-15T00:11:48;18.92;;;8.23;;
23990;SDS011;12205;50.600;4.608;2024-01-15T00:14:15;21.35;;;8.63;;
23990;SDS011;12205;50.600;4.608;2024-01-15T00:16:45;20.70;;;8.85;;
23990;SDS011;12205;50.600;4.608;2024-01-15T00:19:13;23.80;;;9.32;;
23990;SDS011;12205;50.600;4.608;2024-01-15T00:21:40;17.88;;;8.15;;
23990;SDS011;12205;50.600;4.608;2024-01-15T00:24:07;16.10;;;7.65;;
23990;SDS011;12205;50.600;4.608;2024-01-15T00:26:35;18.35;;;7.60;;
23990;SDS011;12205;50.600;4.608;2024-01-15T00:29:02;22.13;;;8.02;;
23990;SDS011;12205;50.600;4.608;2024-01-15T00:31:29;19.20;;;7.70;;
23990;SDS011;12205;50.600;4.608;2024-01-15T00:33:56;13.45;;;6.90;;
23990;SDS011;12205;50.600;4.608;2024-01-15T00:36:25;12.38;;;6.88;;
23990;SDS011;12205;50.600;4.608;2024-01-15T00:38:52;15.43;;;7.47;;
23990;SDS011;12205;50.600;4.608;2024-01-15T00:41:19;12.43;;;7.10;;
23990;SDS011;12205;50.600;4.608;2024-01-15T00:43:47;14.95;;;6.85;;
23990;SDS011;12205;50.600;4.608;2024-01-15T00:46:15;15.57;;;6.88;;
23990;SDS011;12205;50.600;4.608;2024-01-15T00:48:41;14.07;;;6.57;;
23990;SDS011;12205;50.600;4.608;2024-01-15T00:51:08;19.17;;;7.57;;
23990;SDS011;12205;50.600;4.608;2024-01-15T00:53:37;16.30;;;7.22;;
23990;SDS011;12205;50.600;4.608;2024-01-15T00:56:05;17.17;;;7.25;;
23990;SDS011;12205;50.600;4.608;2024-01-15T00:58:32;16.65;;;7.50;;
23990;SDS011;12205;50.600;4.608;2024-01-15T01:00:59;14.57;;;6.50;;
23990;SDS011;12205;50.600;4.608;2024-01-15T01:03:26;17.67;;;7.15;;
23990;SDS011;12205;50.600;4.608;2024-01-15T01:05:53;13.25;;;6.05;;
23990;SDS011;12205;50.600;4.608;2024-01-15T01:08:20;12.73;;;6.63;;
23990;SDS011;12205;50.600;4.608;2024-01-15T01:10:49;15.50;;;6.80;;
23990;SDS011;12205;50.600;4.608;2024-01-15T01:13:16;17.90;;;7.32;;
23990;SDS011;12205;50.600;4.608;2024-01-15T01:15:43;15.02;;;6.57;;
23990;SDS011;12205;50.600;4.608;2024-01-15T01:18:10;15.40;;;6.45;;
23990;SDS011;12205;50.600;4.608;2024-01-15T01:20:37;12.00;;;6.35;;
23990;SDS011;12205;50.600;4.608;2024-01-15T01:23:04;16.05;;;6.15;;
23990;SDS011;12205;50.600;4.608;2024-01-15T01:25:31;11.80;;;6.10;;
23990;SDS011;12205;50.600;4.608;2024-01-15T01:27:59;13.18;;;5.90;;
23990;SDS011;12205;50.600;4.608;2024-01-15T01:30:26;9.45;;;4.70;;
23990;SDS011;12205;50.600;4.608;2024-01-15T01:32:54;12.93;;;6.07;;
23990;SDS011;12205;50.600;4.608;2024-01-15T01:35:21;11.57;;;5.22;;
23990;SDS011;12205;50.600;4.608;2024-01-15T01:37:48;11.70;;;5.70;;
23990;SDS011;12205;50.600;4.608;2024-01-15T01:40:15;9.18;;;5.20;;
23990;SDS011;12205;50.600;4.608;2024-01-15T01:42:43;11.75;;;5.13;;
23990;SDS011;12205;50.600;4.608;2024-01-15T01:45:11;11.75;;;5.60;;
23990;SDS011;12205;50.600;4.608;2024-01-15T01:47:39;11.55;;;5.43;;
23990;SDS011;12205;50.600;4.608;2024-01-15T01:50:06;9.95;;;5.15;;
23990;SDS011;12205;50.600;4.608;2024-01-15T01:52:34;9.35;;;4.70;;
23990;SDS011;12205;50.600;4.608;2024-01-15T01:55:02;9.95;;;5.13;;
23990;SDS011;12205;50.600;4.608;2024-01-15T01:57:32;14.63;;;5.40;;
23990;SDS011;12205;50.600;4.608;2024-01-15T02:00:01;12.38;;;5.30;;
23990;SDS011;12205;50.600;4.608;2024-01-15T02:02:38;10.70;;;4.55;;
23990;SDS011;12205;50.600;4.608;2024-01-15T02:05:05;10.07;;;5.38;;
23990;SDS011;12205;50.600;4.608;2024-01-15T02:07:34;9.05;;;4.40;;
23990;SDS011;12205;50.600;4.608;2024-01-15T02:10:02;12.18;;;5.43;;
23990;SDS011;12205;50.600;4.608;2024-01-15T02:12:31;12.07;;;5.15;;
23990;SDS011;12205;50.600;4.608;2024-01-15T02:14:58;9.98;;;4.32;;
23990;SDS011;12205;50.600;4.608;2024-01-15T02:17:25;8.70;;;4.43;;
23990;SDS011;12205;50.600;4.608;2024-01-15T02:19:54;9.45;;;4.15;;
23990;SDS011;12205;50.600;4.608;2024-01-15T02:22:21;9.82;;;4.13;;
23990;SDS011;12205;50.600;4.608;2024-01-15T02:24:49;9.57;;;4.40;;
23990;SDS011;12205;50.600;4.608;2024-01-15T02:27:17;9.23;;;4.38;;
23990;SDS011;12205;50.600;4.608;2024-01-15T02:29:46;8.55;;;4.40;;
23990;SDS011;12205;50.600;4.608;2024-01-15T02:32:14;10.90;;;4.60;;
23990;SDS011;12205;50.600;4.608;2024-01-15T02:34:41;8.23;;;4.10;;
23990;SDS011;12205;50.600;4.608;2024-01-15T02:37:08;7.68;;;3.97;;
23990;SDS011;12205;50.600;4.608;2024-01-15T02:39:35;12.38;;;4.15;;
23990;SDS011;12205;50.600;4.608;2024-01-15T02:42:04;8.60;;;3.80;;
23990;SDS011;12205;50.600;4.608;2024-01-15T02:44:31;7.40;;;3.58;;
23990;SDS011;12205;50.600;4.608;2024-01-15T02:46:59;7.97;;;3.85;;
23990;SDS011;12205;50.600;4.608;2024-01-15T02:49:26;8.10;;;4.28;;
23990;SDS011;12205;50.600;4.608;2024-01-15T02:51:53;8.13;;;3.63;;
23990;SDS011;12205;50.600;4.608;2024-01-15T02:54:20;9.57;;;3.63;;
23990;SDS011;12205;50.600;4.608;2024-01-15T02:56:47;7.97;;;3.67;;
23990;SDS011;12205;50.600;4.608;2024-01-15T02:59:15;5.68;;;3.35;;
23990;SDS011;12205;50.600;4.608;2024-01-15T03:01:42;9.88;;;4.03;;
23990;SDS011;12205;50.600;4.608;2024-01-15T03:04:09;5.35;;;3.05;;
23990;SDS011;12205;50.600;4.608;2024-01-15T03:06:36;10.93;;;3.90;;
23990;SDS011;12205;50.600;4.608;2024-01-15T03:09:03;8.25;;;3.78;;
23990;SDS011;12205;50.600;4.608;2024-01-15T03:11:36;10.65;;;3.97;;
23990;SDS011;12205;50.600;4.608;2024-01-15T03:14:04;5.80;;;3.25;;
23990;SDS011;12205;50.600;4.608;2024-01-15T03:16:32;11.20;;;3.58;;
23990;SDS011;12205;50.600;4.608;2024-01-15T03:18:59;8.00;;;3.55;;
23990;SDS011;12205;50.600;4.608;2024-01-15T03:21:27;9.13;;;3.17;;
23990;SDS011;12205;50.600;4.608;2024-01-15T03:23:54;10.45;;;3.40;;
23990;SDS011;12205;50.600;4.608;2024-01-15T03:26:21;9.40;;;3.50;;
23990;SDS011;12205;50.600;4.608;2024-01-15T03:28:48;6.75;;;3.65;;
23990;SDS011;12205;50.600;4.608;2024-01-15T03:31:16;7.63;;;3.17;;
23990;SDS011;12205;50.600;4.608;2024-01-15T03:34:03;4.95;;;3.22;;
23990;SDS011;12205;50.600;4.608;2024-01-15T03:36:30;5.57;;;3.03;;
23990;SDS011;12205;50.600;4.608;2024-01-15T03:38:57;7.65;;;2.95;;
23990;SDS011;12205;50.600;4.608;2024-01-15T03:41:24;9.75;;;3.17;;
23990;SDS011;12205;50.600;4.608;2024-01-15T03:43:51;8.00;;;3.20;;
23990;SDS011;12205;50.600;4.608;2024-01-15T03:46:19;7.18;;;3.10;;
23990;SDS011;12205;50.600;4.608;2024-01-15T03:48:47;15.18;;;3.80;;
23990;SDS011;12205;50.600;4.608;2024-01-15T03:51:15;10.30;;;3.53;;
23990;SDS011;12205;50.600;4.608;2024-01-15T03:53:43;7.55;;;2.95;;
23990;SDS011;12205;50.600;4.608;2024-01-15T03:56:10;4.88;;;2.60;;
23990;SDS011;12205;50.600;4.608;2024-01-15T03:58:37;5.07;;;2.80;;
23990;SDS011;12205;50.600;4.608;2024-01-15T04:01:07;5.07;;;2.70;;
23990;SDS011;12205;50.600;4.608;2024-01-15T04:03:35;4.30;;;2.47;;
23990;SDS011;12205;50.600;4.608;2024-01-15T04:06:04;4.75;;;2.20;;
23990;SDS011;12205;50.600;4.608;2024-01-15T04:08:31;4.70;;;2.38;;
23990;SDS011;12205;50.600;4.608;2024-01-15T04:10:59;4.35;;;2.50;;
23990;SDS011;12205;50.600;4.608;2024-01-15T04:13:26;4.43;;;2.40;;
23990;SDS011;12205;50.600;4.608;2024-01-15T04:15:54;5.68;;;2.50;;
23990;SDS011;12205;50.600;4.608;2024-01-15T04:18:21;9.73;;;2.97;;
23990;SDS011;12205;50.600;4.608;2024-01-15T04:20:48;6.45;;;2.63;;
23990;SDS011;12205;50.600;4.608;2024-01-15T04:23:16;5.53;;;2.38;;
23990;SDS011;12205;50.600;4.608;2024-01-15T04:25:43;4.30;;;2.28;;
23990;SDS011;12205;50.600;4.608;2024-01-15T04:28:11;3.83;;;2.30;;
23990;SDS011;12205;50.600;4.608;2024-01-15T04:30:38;3.50;;;2.03;;
23990;SDS011;12205;50.600;4.608;2024-01-15T04:33:05;3.80;;;2.08;;
23990;SDS011;12205;50.600;4.608;2024-01-15T04:35:32;6.43;;;2.13;;
23990;SDS011;12205;50.600;4.608;2024-01-15T04:38:00;3.70;;;2.03;;
23990;SDS011;12205;50.600;4.608;2024-01-15T04:40:29;8.40;;;2.30;;
23990;SDS011;12205;50.600;4.608;2024-01-15T04:42:56;4.75;;;2.10;;
23990;SDS011;12205;50.600;4.608;2024-01-15T04:45:23;7.90;;;2.30;;
23990;SDS011;12205;50.600;4.608;2024-01-15T04:47:53;8.15;;;2.40;;
23990;SDS011;12205;50.600;4.608;2024-01-15T04:50:21;3.35;;;1.98;;
23990;SDS011;12205;50.600;4.608;2024-01-15T04:52:49;3.35;;;1.80;;
23990;SDS011;12205;50.600;4.608;2024-01-15T04:55:16;3.53;;;2.08;;
23990;SDS011;12205;50.600;4.608;2024-01-15T04:57:45;4.20;;;2.17;;
23990;SDS011;12205;50.600;4.608;2024-01-15T05:00:12;3.30;;;2.08;;
23990;SDS011;12205;50.600;4.608;2024-01-15T05:02:40;3.92;;;2.25;;
23990;SDS011;12205;50.600;4.608;2024-01-15T05:05:07;4.93;;;2.20;;
23990;SDS011;12205;50.600;4.608;2024-01-15T05:07:34;5.72;;;2.38;;
23990;SDS011;12205;50.600;4.608;2024-01-15T05:10:01;5.93;;;2.10;;
23990;SDS011;12205;50.600;4.608;2024-01-15T05:12:29;4.68;;;1.90;;
23990;SDS011;12205;50.600;4.608;2024-01-15T05:14:57;3.53;;;1.92;;
23990;SDS011;12205;50.600;4.608;2024-01-15T05:17:24;11.15;;;2.05;;
23990;SDS011;12205;50.600;4.608;2024-01-15T05:19:51;3.15;;;2.00;;
23990;SDS011;12205;50.600;4.608;2024-01-15T05:22:18;5.75;;;1.98;;
23990;SDS011;12205;50.600;4.608;2024-01-15T05:24:46;17.67;;;2.60;;
23990;SDS011;12205;50.600;4.608;2024-01-15T05:27:14;11.68;;;2.13;;
23990;SDS011;12205;50.600;4.608;2024-01-15T05:29:41;15.10;;;2.45;;
23990;SDS011;12205;50.600;4.608;2024-01-15T05:32:09;48.13;;;5.00;;
23990;SDS011;12205;50.600;4.608;2024-01-15T05:34:36;45.00;;;4.90;;
23990;SDS011;12205;50.600;4.608;2024-01-15T05:37:03;23.50;;;2.65;;
23990;SDS011;12205;50.600;4.608;2024-01-15T05:39:30;8.27;;;1.73;;
23990;SDS011;12205;50.600;4.608;2024-01-15T05:41:58;10.68;;;2.13;;
23990;SDS011;12205;50.600;4.608;2024-01-15T05:44:25;15.32;;;2.30;;
23990;SDS011;12205;50.600;4.608;2024-01-15T05:46:53;18.75;;;2.35;;
23990;SDS011;12205;50.600;4.608;2024-01-15T05:49:21;8.82;;;1.75;;
23990;SDS011;12205;50.600;4.608;2024-01-15T05:51:49;5.72;;;1.88;;
23990;SDS011;12205;50.600;4.608;2024-01-15T05:54:17;7.03;;;1.90;;
23990;SDS011;12205;50.600;4.608;2024-01-15T05:56:44;11.80;;;1.80;;
23990;SDS011;12205;50.600;4.608;2024-01-15T05:59:12;8.88;;;1.60;;
23990;SDS011;12205;50.600;4.608;2024-01-15T06:01:39;3.67;;;2.00;;
23990;SDS011;12205;50.600;4.608;2024-01-15T06:04:06;4.03;;;1.75;;
23990;SDS011;12205;50.600;4.608;2024-01-15T06:06:35;11.57;;;2.15;;
23990;SDS011;12205;50.600;4.608;2024-01-15T06:09:02;10.25;;;2.17;;
23990;SDS011;12205;50.600;4.608;2024-01-15T06:11:31;5.93;;;1.80;;
23990;SDS011;12205;50.600;4.608;2024-01-15T06:13:58;5.47;;;1.50;;
23990;SDS011;12205;50.600;4.608;2024-01-15T06:16:26;6.13;;;1.85;;
23990;SDS011;12205;50.600;4.608;2024-01-15T06:18:53;5.28;;;1.60;;
23990;SDS011;12205;50.600;4.608;2024-01-15T06:21:20;7.22;;;1.70;;
23990;SDS011;12205;50.600;4.608;2024-01-15T06:23:48;3.53;;;1.40;;
23990;SDS011;12205;50.600;4.608;2024-01-15T06:26:15;4.22;;;1.58;;
23990;SDS011;12205;50.600;4.608;2024-01-15T06:28:43;3.08;;;1.63;;
23990;SDS011;12205;50.600;4.608;2024-01-15T06:31:10;8.05;;;1.70;;
23990;SDS011;12205;50.600;4.608;2024-01-15T06:33:37;3.30;;;1.60;;
23990;SDS011;12205;50.600;4.608;2024-01-15T06:36:04;4.90;;;1.80;;
23990;SDS011;12205;50.600;4.608;2024-01-15T06:38:32;4.75;;;1.92;;
23990;SDS011;12205;50.600;4.608;2024-01-15T06:41:01;5.57;;;1.50;;
23990;SDS011;12205;50.600;4.608;2024-01-15T06:43:28;6.80;;;1.38;;
23990;SDS011;12205;50.600;4.608;2024-01-15T06:45:55;4.43;;;1.55;;
23990;SDS011;12205;50.600;4.608;2024-01-15T06:48:22;5.30;;;1.40;;
23990;SDS011;12205;50.600;4.608;2024-01-15T06:50:49;12.07;;;2.67;;
23990;SDS011;12205;50.600;4.608;2024-01-15T06:53:16;6.97;;;1.77;;
23990;SDS011;12205;50.600;4.608;2024-01-15T06:55:43;6.53;;;1.52;;
23990;SDS011;12205;50.600;4.608;2024-01-15T06:58:12;7.30;;;1.60;;
23990;SDS011;12205;50.600;4.608;2024-01-15T07:00:39;16.92;;;1.75;;
23990;SDS011;12205;50.600;4.608;2024-01-15T07:03:06;13.85;;;2.00;;
23990;SDS011;12205;50.600;4.608;2024-01-15T07:05:33;6.13;;;1.70;;
23990;SDS011;12205;50.600;4.608;2024-01-15T07:08:02;6.18;;;1.65;;
23990;SDS011;12205;50.600;4.608;2024-01-15T07:10:30;5.60;;;1.60;;
23990;SDS011;12205;50.600;4.608;2024-01-15T07:12:57;5.63;;;1.30;;
23990;SDS011;12205;50.600;4.608;2024-01-15T07:15:25;8.60;;;1.55;;
23990;SDS011;12205;50.600;4.608;2024-01-15T07:17:52;4.10;;;1.60;;
23990;SDS011;12205;50.600;4.608;2024-01-15T07:20:19;4.28;;;1.25;;
23990;SDS011;12205;50.600;4.608;2024-01-15T07:22:47;9.07;;;1.70;;
23990;SDS011;12205;50.600;4.608;2024-01-15T07:25:15;3.22;;;1.40;;
23990;SDS011;12205;50.600;4.608;2024-01-15T07:27:42;2.63;;;1.30;;
23990;SDS011;12205;50.600;4.608;2024-01-15T07:30:10;5.32;;;1.65;;
23990;SDS011;12205;50.600;4.608;2024-01-15T07:32:39;2.60;;;1.30;;
23990;SDS011;12205;50.600;4.608;2024-01-15T07:35:07;5.22;;;1.35;;
23990;SDS011;12205;50.600;4.608;2024-01-15T07:37:35;10.82;;;1.50;;
23990;SDS011;12205;50.600;4.608;2024-01-15T07:40:02;5.20;;;1.40;;
23990;SDS011;12205;50.600;4.608;2024-01-15T07:42:31;7.13;;;1.50;;
23990;SDS011;12205;50.600;4.608;2024-01-15T07:44:59;9.75;;;1.50;;
23990;SDS011;12205;50.600;4.608;2024-01-15T07:47:26;5.50;;;1.58;;
23990;SDS011;12205;50.600;4.608;2024-01-15T07:49:55;4.75;;;1.52;;
23990;SDS011;12205;50.600;4.608;2024-01-15T07:52:22;20.33;;;2.85;;
23990;SDS011;12205;50.600;4.608;2024-01-15T07:54:49;4.88;;;1.40;;
23990;SDS011;12205;50.600;4.608;2024-01-15T07:57:16;4.70;;;1.30;;
23990;SDS011;12205;50.600;4.608;2024-01-15T07:59:43;11.75;;;1.70;;
23990;SDS011;12205;50.600;4.608;2024-01-15T08:02:11;6.40;;;1.60;;
23990;SDS011;12205;50.600;4.608;2024-01-15T08:04:38;5.13;;;1.42;;
23990;SDS011;12205;50.600;4.608;2024-01-15T08:07:06;5.88;;;1.30;;
23990;SDS011;12205;50.600;4.608;2024-01-15T08:09:33;16.13;;;1.60;;
23990;SDS011;12205;50.600;4.608;2024-01-15T08:12:00;6.75;;;1.08;;
23990;SDS011;12205;50.600;4.608;2024-01-15T08:14:28;2.75;;;1.05;;
23990;SDS011;12205;50.600;4.608;2024-01-15T08:16:55;5.13;;;1.00;;
23990;SDS011;12205;50.600;4.608;2024-01-15T08:19:22;3.20;;;1.10;;
23990;SDS011;12205;50.600;4.608;2024-01-15T08:21:49;3.53;;;1.02;;
23990;SDS011;12205;50.600;4.608;2024-01-15T08:24:18;4.05;;;1.05;;
23990;SDS011;12205;50.600;4.608;2024-01-15T08:26:45;2.60;;;0.95;;
23990;SDS011;12205;50.600;4.608;2024-01-15T08:29:12;5.20;;;1.00;;
23990;SDS011;12205;50.600;4.608;2024-01-15T08:31:39;3.92;;;0.90;;
23990;SDS011;12205;50.600;4.608;2024-01-15T08:34:06;3.60;;;1.13;;
23990;SDS011;12205;50.600;4.608;2024-01-15T08:36:33;5.90;;;1.05;;
23990;SDS011;12205;50.600;4.608;2024-01-15T08:39:01;2.90;;;1.02;;
23990;SDS011;12205;50.600;4.608;2024-01-15T08:41:33;4.85;;;1.00;;
23990;SDS011;12205;50.600;4.608;2024-01-15T08:44:00;2.50;;;0.98;;
23990;SDS011;12205;50.600;4.608;2024-01-15T08:46:28;2.10;;;1.00;;
23990;SDS011;12205;50.600;4.608;2024-01-15T08:48:55;4.18;;;1.17;;
23990;SDS011;12205;50.600;4.608;2024-01-15T08:51:22;4.45;;;0.98;;
23990;SDS011;12205;50.600;4.608;2024-01-15T08:53:49;2.63;;;0.80;;
23990;SDS011;12205;50.600;4.608;2024-01-15T08:56:16;2.05;;;0.80;;
23990;SDS011;12205;50.600;4.608;2024-01-15T08:58:44;2.38;;;0.90;;
23990;SDS011;12205;50.600;4.608;2024-01-15T09:01:12;4.97;;;1.10;;
23990;SDS011;12205;50.600;4.608;2024-01-15T09:03:39;4.88;;;0.90;;
23990;SDS011;12205;50.600;4.608;2024-01-15T09:06:07;1.40;;;0.77;;
23990;SDS011;12205;50.600;4.608;2024-01-15T09:08:34;2.50;;;0.70;;
23990;SDS011;12205;50.600;4.608;2024-01-15T09:11:02;1.80;;;0.80;;
23990;SDS011;12205;50.600;4.608;2024-01-15T09:13:29;4.78;;;0.95;;
23990;SDS011;12205;50.600;4.608;2024-01-15T09:15:58;3.38;;;0.70;;
23990;SDS011;12205;50.600;4.608;2024-01-15T09:18:26;2.28;;;0.70;;
23990;SDS011;12205;50.600;4.608;2024-01-15T09:20:53;1.90;;;0.90;;
23990;SDS011;12205;50.600;4.608;2024-01-15T09:23:21;1.30;;;0.70;;
23990;SDS011;12205;50.600;4.608;2024-01-15T09:25:48;4.20;;;0.85;;
23990;SDS011;12205;50.600;4.608;2024-01-15T09:28:15;2.35;;;0.90;;
23990;SDS011;12205;50.600;4.608;2024-01-15T09:30:42;4.90;;;0.80;;
23990;SDS011;12205;50.600;4.608;2024-01-15T09:33:11;2.03;;;0.73;;
23990;SDS011;12205;50.600;4.608;2024-01-15T09:35:38;5.47;;;1.05;;
23990;SDS011;12205;50.600;4.608;2024-01-15T09:38:06;2.25;;;0.75;;
23990;SDS011;12205;50.600;4.608;2024-01-15T09:40:33;1.52;;;0.77;;
23990;SDS011;12205;50.600;4.608;2024-01-15T09:43:03;1.65;;;0.70;;
23990;SDS011;12205;50.600;4.608;2024-01-15T09:45:30;1.15;;;0.63;;
23990;SDS011;12205;50.600;4.608;2024-01-15T09:47:58;0.98;;;0.63;;
23990;SDS011;12205;50.600;4.608;2024-01-15T09:50:26;1.50;;;0.70;;
23990;SDS011;12205;50.600;4.608;2024-01-15T09:52:53;1.65;;;0.73;;
23990;SDS011;12205;50.600;4.608;2024-01-15T09:55:22;1.65;;;0.60;;
23990;SDS011;12205;50.600;4.608;2024-01-15T09:57:50;1.58;;;0.50;;
23990;SDS011;12205;50.600;4.608;2024-01-15T10:00:17;3.33;;;0.65;;
23990;SDS011;12205;50.600;4.608;2024-01-15T10:02:44;3.47;;;0.80;;
23990;SDS011;12205;50.600;4.608;2024-01-15T10:05:12;1.88;;;0.60;;
23990;SDS011;12205;50.600;4.608;2024-01-15T10:07:40;3.58;;;0.70;;
23990;SDS011;12205;50.600;4.608;2024-01-15T10:10:08;2.88;;;0.70;;
23990;SDS011;12205;50.600;4.608;2024-01-15T10:12:37;2.88;;;0.60;;
23990;SDS011;12205;50.600;4.608;2024-01-15T10:15:06;1.05;;;0.40;;
23990;SDS011;12205;50.600;4.608;2024-01-15T10:17:37;0.85;;;0.50;;
23990;SDS011;12205;50.600;4.608;2024-01-15T10:20:07;1.10;;;0.50;;
23990;SDS011;12205;50.600;4.608;2024-01-15T10:22:38;2.15;;;0.60;;
23990;SDS011;12205;50.600;4.608;2024-01-15T10:25:11;0.85;;;0.50;;
23990;SDS011;12205;50.600;4.608;2024-01-15T10:27:40;2.17;;;0.60;;
23990;SDS011;12205;50.600;4.608;2024-01-15T10:30:07;1.90;;;0.68;;
23990;SDS011;12205;50.600;4.608;2024-01-15T10:32:35;2.42;;;0.70;;
23990;SDS011;12205;50.600;4.608;2024-01-15T10:35:03;1.52;;;0.73;;
23990;SDS011;12205;50.600;4.608;2024-01-15T10:37:33;2.05;;;0.50;;
23990;SDS011;12205;50.600;4.608;2024-01-15T10:40:02;1.65;;;0.43;;
23990;SDS011;12205;50.600;4.608;2024-01-15T10:42:31;2.67;;;0.57;;
23990;SDS011;12205;50.600;4.608;2024-01-15T10:44:58;1.45;;;0.50;;
23990;SDS011;12205;50.600;4.608;2024-01-15T10:47:25;1.38;;;0.60;;
23990;SDS011;12205;50.600;4.608;2024-01-15T10:49:53;2.28;;;0.60;;
23990;SDS011;12205;50.600;4.608;2024-01-15T10:52:20;2.28;;;0.68;;
23990;SDS011;12205;50.600;4.608;2024-01-15T10:54:48;1.98;;;0.60;;
23990;SDS011;12205;50.600;4.608;2024-01-15T10:57:18;0.70;;;0.30;;
23990;SDS011;12205;50.600;4.608;2024-01-15T10:59:47;1.00;;;0.30;;
23990;SDS011;12205;50.600;4.608;2024-01-15T11:02:14;1.17;;;0.55;;
23990;SDS011;12205;50.600;4.608;2024-01-15T11:04:42;0.98;;;0.50;;
23990;SDS011;12205;50.600;4.608;2024-01-15T11:07:09;2.10;;;0.40;;
23990;SDS011;12205;50.600;4.608;2024-01-15T11:09:37;2.17;;;0.50;;
23990;SDS011;12205;50.600;4.608;2024-01-15T11:12:09;1.08;;;0.50;;
23990;SDS011;12205;50.600;4.608;2024-01-15T11:14:45;3.03;;;0.90;;
23990;SDS011;12205;50.600;4.608;2024-01-15T11:17:13;6.60;;;0.82;;
23990;SDS011;12205;50.600;4.608;2024-01-15T11:19:44;10.63;;;1.75;;
23990;SDS011;12205;50.600;4.608;2024-01-15T11:25:17;7.60;;;1.00;;
23990;SDS011;12205;50.600;4.608;2024-01-15T11:27:46;5.35;;;0.82;;
23990;SDS011;12205;50.600;4.608;2024-01-15T11:30:17;5.50;;;0.90;;
23990;SDS011;12205;50.600;4.608;2024-01-15T11:32:46;9.20;;;0.80;;
23990;SDS011;12205;50.600;4.608;2024-01-15T11:35:13;4.65;;;0.80;;
23990;SDS011;12205;50.600;4.608;2024-01-15T11:37:56;7.63;;;1.13;;
23990;SDS011;12205;50.600;4.608;2024-01-15T11:40:36;4.93;;;0.75;;
23990;SDS011;12205;50.600;4.608;2024-01-15T11:43:05;5.78;;;0.75;;
23990;SDS011;12205;50.600;4.608;2024-01-15T11:45:35;6.65;;;0.90;;
23990;SDS011;12205;50.600;4.608;2024-01-15T11:48:10;4.75;;;1.00;;
23990;SDS011;12205;50.600;4.608;2024-01-15T11:50:42;7.03;;;1.00;;
23990;SDS011;12205;50.600;4.608;2024-01-15T11:53:19;4.43;;;0.88;;
23990;SDS011;12205;50.600;4.608;2024-01-15T11:55:59;2.85;;;0.70;;
23990;SDS011;12205;50.600;4.608;2024-01-15T11:58:31;6.00;;;0.82;;
23990;SDS011;12205;50.600;4.608;2024-01-15T12:01:02;3.75;;;0.60;;
23990;SDS011;12205;50.600;4.608;2024-01-15T12:03:31;6.15;;;0.70;;
23990;SDS011;12205;50.600;4.608;2024-01-15T12:06:00;4.05;;;0.52;;
23990;SDS011;12205;50.600;4.608;2024-01-15T12:08:27;6.13;;;0.98;;
23990;SDS011;12205;50.600;4.608;2024-01-15T12:10:54;1.65;;;0.57;;
23990;SDS011;12205;50.600;4.608;2024-01-15T12:13:22;3.70;;;0.82;;
23990;SDS011;12205;50.600;4.608;2024-01-15T12:15:49;1.95;;;0.60;;
23990;SDS011;12205;50.600;4.608;2024-01-15T12:18:18;4.00;;;0.85;;
23990;SDS011;12205;50.600;4.608;2024-01-15T12:20:45;8.32;;;1.08;;
23990;SDS011;12205;50.600;4.608;2024-01-15T12:23:13;1.58;;;0.60;;
23990;SDS011;12205;50.600;4.608;2024-01-15T12:25:40;2.72;;;0.70;;
23990;SDS011;12205;50.600;4.608;2024-01-15T12:28:08;2.22;;;0.57;;
23990;SDS011;12205;50.600;4.608;2024-01-15T12:30:35;2.78;;;0.55;;
23990;SDS011;12205;50.600;4.608;2024-01-15T12:33:03;1.90;;;0.50;;
23990;SDS011;12205;50.600;4.608;2024-01-15T12:35:33;5.40;;;0.70;;
23990;SDS011;12205;50.600;4.608;2024-01-15T12:38:01;1.55;;;0.45;;
23990;SDS011;12205;50.600;4.608;2024-01-15T12:40:28;2.88;;;0.73;;
23990;SDS011;12205;50.600;4.608;2024-01-15T12:42:57;2.35;;;0.52;;
23990;SDS011;12205;50.600;4.608;2024-01-15T12:45:23;5.10;;;0.65;;
23990;SDS011;12205;50.600;4.608;2024-01-15T12:47:50;4.00;;;0.70;;
23990;SDS011;12205;50.600;4.608;2024-01-15T12:50:18;1.98;;;0.55;;
23990;SDS011;12205;50.600;4.608;2024-01-15T12:52:47;2.28;;;0.50;;
23990;SDS011;12205;50.600;4.608;2024-01-15T12:55:14;2.20;;;0.60;;
23990;SDS011;12205;50.600;4.608;2024-01-15T12:57:41;2.22;;;0.40;;
23990;SDS011;12205;50.600;4.608;2024-01-15T13:00:10;3.13;;;0.55;;
23990;SDS011;12205;50.600;4.608;2024-01-15T13:02:39;2.03;;;0.60;;
23990;SDS011;12205;50.600;4.608;2024-01-15T13:05:08;4.32;;;0.80;;
23990;SDS011;12205;50.600;4.608;2024-01-15T13:07:36;1.83;;;0.57;;
23990;SDS011;12205;50.600;4.608;2024-01-15T13:10:05;3.17;;;0.60;;
23990;SDS011;12205;50.600;4.608;2024-01-15T13:12:34;1.85;;;0.50;;
23990;SDS011;12205;50.600;4.608;2024-01-15T13:15:01;3.13;;;0.60;;
23990;SDS011;12205;50.600;4.608;2024-01-15T13:17:29;1.35;;;0.30;;
23990;SDS011;12205;50.600;4.608;2024-01-15T13:19:57;4.90;;;0.65;;
23990;SDS011;12205;50.600;4.608;2024-01-15T13:22:24;3.50;;;0.40;;
23990;SDS011;12205;50.600;4.608;2024-01-15T13:24:55;13.82;;;2.30;;
23990;SDS011;12205;50.600;4.608;2024-01-15T13:27:23;2.85;;;0.80;;
23990;SDS011;12205;50.600;4.608;2024-01-15T13:29:51;3.78;;;0.70;;
23990;SDS011;12205;50.600;4.608;2024-01-15T13:32:21;7.82;;;1.58;;
23990;SDS011;12205;50.600;4.608;2024-01-15T13:34:51;4.72;;;0.85;;
23990;SDS011;12205;50.600;4.608;2024-01-15T13:37:18;2.90;;;0.63;;
23990;SDS011;12205;50.600;4.608;2024-01-15T13:39:46;3.72;;;0.60;;
23990;SDS011;12205;50.600;4.608;2024-01-15T13:42:13;6.70;;;0.73;;
23990;SDS011;12205;50.600;4.608;2024-01-15T13:44:42;3.15;;;0.70;;
23990;SDS011;12205;50.600;4.608;2024-01-15T13:47:09;2.30;;;0.70;;
23990;SDS011;12205;50.600;4.608;2024-01-15T13:49:36;2.80;;;0.70;;
23990;SDS011;12205;50.600;4.608;2024-01-15T13:52:04;4.70;;;0.82;;
23990;SDS011;12205;50.600;4.608;2024-01-15T13:54:31;5.28;;;0.80;;
23990;SDS011;12205;50.600;4.608;2024-01-15T13:56:58;5.63;;;1.00;;
23990;SDS011;12205;50.600;4.608;2024-01-15T13:59:26;5.78;;;0.68;;
23990;SDS011;12205;50.600;4.608;2024-01-15T14:01:55;3.15;;;0.57;;
23990;SDS011;12205;50.600;4.608;2024-01-15T14:04:22;5.18;;;0.60;;
23990;SDS011;12205;50.600;4.608;2024-01-15T14:06:49;3.67;;;0.70;;
23990;SDS011;12205;50.600;4.608;2024-01-15T14:09:16;2.55;;;0.65;;
23990;SDS011;12205;50.600;4.608;2024-01-15T14:11:44;1.80;;;0.60;;
23990;SDS011;12205;50.600;4.608;2024-01-15T14:14:11;2.90;;;0.50;;
23990;SDS011;12205;50.600;4.608;2024-01-15T14:16:38;3.90;;;0.80;;
23990;SDS011;12205;50.600;4.608;2024-01-15T14:19:07;3.83;;;0.80;;
23990;SDS011;12205;50.600;4.608;2024-01-15T14:21:34;2.50;;;0.50;;
23990;SDS011;12205;50.600;4.608;2024-01-15T14:24:01;2.42;;;0.60;;
23990;SDS011;12205;50.600;4.608;2024-01-15T14:26:29;3.28;;;0.50;;
23990;SDS011;12205;50.600;4.608;2024-01-15T14:28:57;5.40;;;0.60;;
23990;SDS011;12205;50.600;4.608;2024-01-15T14:31:24;4.07;;;0.65;;
23990;SDS011;12205;50.600;4.608;2024-01-15T14:33:53;4.13;;;0.70;;
23990;SDS011;12205;50.600;4.608;2024-01-15T14:36:22;2.78;;;0.55;;
23990;SDS011;12205;50.600;4.608;2024-01-15T14:38:49;1.83;;;0.70;;
23990;SDS011;12205;50.600;4.608;2024-01-15T14:41:17;3.20;;;0.50;;
23990;SDS011;12205;50.600;4.608;2024-01-15T14:43:44;2.70;;;0.70;;
23990;SDS011;12205;50.600;4.608;2024-01-15T14:46:11;2.67;;;0.50;;
23990;SDS011;12205;50.600;4.608;2024-01-15T14:48:38;3.03;;;0.70;;
23990;SDS011;12205;50.600;4.608;2024-01-15T14:51:06;5.78;;;0.63;;
23990;SDS011;12205;50.600;4.608;2024-01-15T14:53:34;3.97;;;0.70;;